sensor_id;sensor_type;location;lat;lon;timestamp;P1;durP1;ratioP1;P2;durP2;ratioP2
59336;SDS011;45115;52.002;4.686;2022-12-20T00:01:10;7.43;;;5.10;;
59336;SDS011;45115;52.002;4.686;2022-12-20T00:03:38;9.52;;;4.88;;
59336;SDS011;45115;52.002;4.686;2022-12-20T00:06:07;10.15;;;4.90;;
59336;SDS011;45115;52.002;4.686;2022-12-20T00:08:35;10.13;;;4.82;;
59336;SDS011;45115;52.002;4.686;2022-12-20T00:11:04;9.32;;;5.00;;
59336;SDS011;45115;52.002;4.686;2022-12-20T00:13:32;11.77;;;5.70;;
59336;SDS011;45115;52.002;4.686;2022-12-20T00:16:03;12.75;;;5.72;;
59336;SDS011;45115;52.002;4.686;2022-12-20T00:18:31;8.48;;;5.22;;
59336;SDS011;45115;52.002;4.686;2022-12-20T00:20:58;10.48;;;5.32;;
59336;SDS011;45115;52.002;4.686;2022-12-20T00:23:30;8.88;;;4.63;;
59336;SDS011;45115;52.002;4.686;2022-12-20T00:26:00;9.20;;;4.78;;
59336;SDS011;45115;52.002;4.686;2022-12-20T00:28:29;11.73;;;4.95;;
59336;SDS011;45115;52.002;4.686;2022-12-20T00:30:56;13.55;;;5.45;;
59336;SDS011;45115;52.002;4.686;2022-12-20T00:33:23;9.77;;;4.57;;
59336;SDS011;45115;52.002;4.686;2022-12-20T00:35:50;12.52;;;5.60;;
59336;SDS011;45115;52.002;4.686;2022-12-20T00:38:18;9.85;;;4.90;;
59336;SDS011;45115;52.002;4.686;2022-12-20T00:40:46;7.90;;;4.20;;
59336;SDS011;45115;52.002;4.686;2022-12-20T00:43:13;9.63;;;5.53;;
59336;SDS011;45115;52.002;4.686;2022-12-20T00:45:39;9.43;;;4.93;;
59336;SDS011;45115;52.002;4.686;2022-12-20T00:48:06;9.07;;;5.07;;
59336;SDS011;45115;52.002;4.686;2022-12-20T00:50:33;8.82;;;4.82;;
59336;SDS011;45115;52.002;4.686;2022-12-20T00:53:00;8.15;;;4.78;;
59336;SDS011;45115;52.002;4.686;2022-12-20T00:55:27;10.40;;;4.90;;
59336;SDS011;45115;52.002;4.686;2022-12-20T00:57:55;11.80;;;6.00;;
59336;SDS011;45115;52.002;4.686;2022-12-20T01:00:22;11.75;;;5.60;;
59336;SDS011;45115;52.002;4.686;2022-12-20T01:02:49;10.18;;;5.15;;
59336;SDS011;45115;52.002;4.686;2022-12-20T01:05:16;9.57;;;5.30;;
59336;SDS011;45115;52.002;4.686;2022-12-20T01:07:43;9.60;;;5.20;;
59336;SDS011;45115;52.002;4.686;2022-12-20T01:10:10;10.98;;;5.40;;
59336;SDS011;45115;52.002;4.686;2022-12-20T01:12:37;13.20;;;5.65;;
59336;SDS011;45115;52.002;4.686;2022-12-20T01:15:06;9.27;;;5.57;;
59336;SDS011;45115;52.002;4.686;2022-12-20T01:17:35;10.80;;;5.53;;
59336;SDS011;45115;52.002;4.686;2022-12-20T01:20:02;13.57;;;5.32;;
59336;SDS011;45115;52.002;4.686;2022-12-20T01:22:29;10.52;;;5.50;;
59336;SDS011;45115;52.002;4.686;2022-12-20T01:24:56;10.82;;;5.38;;
59336;SDS011;45115;52.002;4.686;2022-12-20T01:27:23;11.88;;;5.88;;
59336;SDS011;45115;52.002;4.686;2022-12-20T01:29:50;11.70;;;6.00;;
59336;SDS011;45115;52.002;4.686;2022-12-20T01:32:19;10.85;;;5.90;;
59336;SDS011;45115;52.002;4.686;2022-12-20T01:34:46;9.90;;;5.65;;
59336;SDS011;45115;52.002;4.686;2022-12-20T01:37:13;10.63;;;5.43;;
59336;SDS011;45115;52.002;4.686;2022-12-20T01:39:45;9.80;;;5.47;;
59336;SDS011;45115;52.002;4.686;2022-12-20T01:42:13;12.05;;;5.90;;
59336;SDS011;45115;52.002;4.686;2022-12-20T01:47:35;11.88;;;5.68;;
59336;SDS011;45115;52.002;4.686;2022-12-20T01:50:03;10.88;;;5.05;;
59336;SDS011;45115;52.002;4.686;2022-12-20T01:52:32;9.23;;;5.30;;
59336;SDS011;45115;52.002;4.686;2022-12-20T01:55:04;10.65;;;5.60;;
59336;SDS011;45115;52.002;4.686;2022-12-20T01:57:37;14.25;;;6.10;;
59336;SDS011;45115;52.002;4.686;2022-12-20T02:00:11;10.38;;;5.35;;
59336;SDS011;45115;52.002;4.686;2022-12-20T02:02:42;9.32;;;5.10;;
59336;SDS011;45115;52.002;4.686;2022-12-20T02:05:11;11.40;;;5.30;;
59336;SDS011;45115;52.002;4.686;2022-12-20T02:07:39;10.00;;;5.57;;
59336;SDS011;45115;52.002;4.686;2022-12-20T02:10:08;12.07;;;5.30;;
59336;SDS011;45115;52.002;4.686;2022-12-20T02:12:37;11.90;;;5.50;;
59336;SDS011;45115;52.002;4.686;2022-12-20T02:15:20;11.48;;;5.00;;
59336;SDS011;45115;52.002;4.686;2022-12-20T02:18:03;12.85;;;6.10;;
59336;SDS011;45115;52.002;4.686;2022-12-20T02:26:15;13.80;;;5.68;;
59336;SDS011;45115;52.002;4.686;2022-12-20T02:29:03;12.52;;;5.20;;
59336;SDS011;45115;52.002;4.686;2022-12-20T02:31:44;11.82;;;5.25;;
59336;SDS011;45115;52.002;4.686;2022-12-20T02:34:15;10.25;;;5.35;;
59336;SDS011;45115;52.002;4.686;2022-12-20T02:36:42;10.50;;;5.28;;
59336;SDS011;45115;52.002;4.686;2022-12-20T02:39:10;9.55;;;4.70;;
59336;SDS011;45115;52.002;4.686;2022-12-20T02:41:40;10.95;;;5.22;;
59336;SDS011;45115;52.002;4.686;2022-12-20T02:44:12;11.68;;;5.30;;
59336;SDS011;45115;52.002;4.686;2022-12-20T02:47:00;11.27;;;5.15;;
59336;SDS011;45115;52.002;4.686;2022-12-20T02:49:31;9.52;;;4.43;;
59336;SDS011;45115;52.002;4.686;2022-12-20T02:52:02;9.98;;;4.57;;
59336;SDS011;45115;52.002;4.686;2022-12-20T02:54:32;11.60;;;5.40;;
59336;SDS011;45115;52.002;4.686;2022-12-20T02:57:01;9.82;;;5.03;;
59336;SDS011;45115;52.002;4.686;2022-12-20T02:59:35;8.77;;;4.47;;
59336;SDS011;45115;52.002;4.686;2022-12-20T03:02:06;8.50;;;4.68;;
59336;SDS011;45115;52.002;4.686;2022-12-20T03:04:34;11.52;;;5.22;;
59336;SDS011;45115;52.002;4.686;2022-12-20T03:07:05;9.32;;;5.18;;
59336;SDS011;45115;52.002;4.686;2022-12-20T03:09:34;10.00;;;4.85;;
59336;SDS011;45115;52.002;4.686;2022-12-20T03:12:02;9.13;;;4.50;;
59336;SDS011;45115;52.002;4.686;2022-12-20T03:14:32;10.30;;;4.80;;
59336;SDS011;45115;52.002;4.686;2022-12-20T03:17:02;10.35;;;5.03;;
59336;SDS011;45115;52.002;4.686;2022-12-20T03:19:30;7.97;;;4.72;;
59336;SDS011;45115;52.002;4.686;2022-12-20T03:21:57;9.25;;;4.63;;
59336;SDS011;45115;52.002;4.686;2022-12-20T03:24:24;10.60;;;4.75;;
59336;SDS011;45115;52.002;4.686;2022-12-20T03:26:52;12.25;;;5.50;;
59336;SDS011;45115;52.002;4.686;2022-12-20T03:29:21;10.00;;;4.65;;
59336;SDS011;45115;52.002;4.686;2022-12-20T03:31:48;9.20;;;4.80;;
59336;SDS011;45115;52.002;4.686;2022-12-20T03:34:18;10.82;;;5.30;;
59336;SDS011;45115;52.002;4.686;2022-12-20T03:36:47;11.10;;;5.05;;
59336;SDS011;45115;52.002;4.686;2022-12-20T03:39:14;11.82;;;5.93;;
59336;SDS011;45115;52.002;4.686;2022-12-20T03:41:41;10.18;;;5.00;;
59336;SDS011;45115;52.002;4.686;2022-12-20T03:44:10;7.65;;;4.40;;
59336;SDS011;45115;52.002;4.686;2022-12-20T03:46:36;10.48;;;5.20;;
59336;SDS011;45115;52.002;4.686;2022-12-20T03:49:03;8.65;;;4.80;;
59336;SDS011;45115;52.002;4.686;2022-12-20T03:51:32;10.05;;;5.15;;
59336;SDS011;45115;52.002;4.686;2022-12-20T03:54:01;11.60;;;5.18;;
59336;SDS011;45115;52.002;4.686;2022-12-20T03:56:46;9.77;;;5.13;;
59336;SDS011;45115;52.002;4.686;2022-12-20T03:59:14;10.30;;;5.00;;
59336;SDS011;45115;52.002;4.686;2022-12-20T04:01:42;9.02;;;4.75;;
59336;SDS011;45115;52.002;4.686;2022-12-20T04:04:09;10.98;;;4.90;;
59336;SDS011;45115;52.002;4.686;2022-12-20T04:06:37;9.10;;;5.00;;
59336;SDS011;45115;52.002;4.686;2022-12-20T04:09:06;9.65;;;4.68;;
59336;SDS011;45115;52.002;4.686;2022-12-20T04:11:39;10.65;;;4.70;;
59336;SDS011;45115;52.002;4.686;2022-12-20T04:14:10;9.90;;;4.28;;
59336;SDS011;45115;52.002;4.686;2022-12-20T04:16:37;10.15;;;5.20;;
59336;SDS011;45115;52.002;4.686;2022-12-20T04:19:05;8.93;;;4.72;;
59336;SDS011;45115;52.002;4.686;2022-12-20T04:21:37;10.82;;;4.60;;
59336;SDS011;45115;52.002;4.686;2022-12-20T04:24:06;9.60;;;4.88;;
59336;SDS011;45115;52.002;4.686;2022-12-20T04:26:39;8.80;;;4.35;;
59336;SDS011;45115;52.002;4.686;2022-12-20T04:29:07;9.20;;;5.20;;
59336;SDS011;45115;52.002;4.686;2022-12-20T04:31:34;10.98;;;4.93;;
59336;SDS011;45115;52.002;4.686;2022-12-20T04:34:01;9.13;;;4.57;;
59336;SDS011;45115;52.002;4.686;2022-12-20T04:36:30;9.88;;;4.72;;
59336;SDS011;45115;52.002;4.686;2022-12-20T04:38:59;9.70;;;4.68;;
59336;SDS011;45115;52.002;4.686;2022-12-20T04:41:30;10.98;;;5.18;;
59336;SDS011;45115;52.002;4.686;2022-12-20T04:44:02;9.48;;;5.20;;
59336;SDS011;45115;52.002;4.686;2022-12-20T04:46:35;9.95;;;5.55;;
59336;SDS011;45115;52.002;4.686;2022-12-20T04:49:04;12.60;;;6.05;;
59336;SDS011;45115;52.002;4.686;2022-12-20T04:51:35;9.98;;;4.78;;
59336;SDS011;45115;52.002;4.686;2022-12-20T04:54:03;11.68;;;4.90;;
59336;SDS011;45115;52.002;4.686;2022-12-20T04:56:45;10.90;;;5.65;;
59336;SDS011;45115;52.002;4.686;2022-12-20T04:59:18;11.13;;;4.90;;
59336;SDS011;45115;52.002;4.686;2022-12-20T05:01:47;11.73;;;5.47;;
59336;SDS011;45115;52.002;4.686;2022-12-20T05:04:25;10.80;;;4.90;;
59336;SDS011;45115;52.002;4.686;2022-12-20T05:06:52;10.82;;;5.18;;
59336;SDS011;45115;52.002;4.686;2022-12-20T05:09:19;9.57;;;5.05;;
59336;SDS011;45115;52.002;4.686;2022-12-20T05:11:48;12.27;;;5.03;;
59336;SDS011;45115;52.002;4.686;2022-12-20T05:14:15;11.18;;;5.53;;
59336;SDS011;45115;52.002;4.686;2022-12-20T05:16:42;12.93;;;5.75;;
59336;SDS011;45115;52.002;4.686;2022-12-20T05:19:09;13.07;;;5.57;;
59336;SDS011;45115;52.002;4.686;2022-12-20T05:21:38;12.20;;;5.85;;
59336;SDS011;45115;52.002;4.686;2022-12-20T05:24:22;9.50;;;5.47;;
59336;SDS011;45115;52.002;4.686;2022-12-20T05:27:18;9.85;;;5.43;;
59336;SDS011;45115;52.002;4.686;2022-12-20T05:29:45;11.20;;;5.53;;
59336;SDS011;45115;52.002;4.686;2022-12-20T05:32:12;10.80;;;5.55;;
59336;SDS011;45115;52.002;4.686;2022-12-20T05:34:41;10.02;;;5.57;;
59336;SDS011;45115;52.002;4.686;2022-12-20T05:37:08;8.57;;;5.20;;
59336;SDS011;45115;52.002;4.686;2022-12-20T05:39:37;11.82;;;5.50;;
59336;SDS011;45115;52.002;4.686;2022-12-20T05:42:10;10.80;;;5.50;;
59336;SDS011;45115;52.002;4.686;2022-12-20T05:44:38;10.55;;;5.80;;
59336;SDS011;45115;52.002;4.686;2022-12-20T05:47:05;13.98;;;5.57;;
59336;SDS011;45115;52.002;4.686;2022-12-20T05:49:34;9.40;;;4.88;;
59336;SDS011;45115;52.002;4.686;2022-12-20T05:52:06;12.50;;;5.40;;
59336;SDS011;45115;52.002;4.686;2022-12-20T05:54:34;9.82;;;4.57;;
59336;SDS011;45115;52.002;4.686;2022-12-20T05:57:06;10.27;;;4.57;;
59336;SDS011;45115;52.002;4.686;2022-12-20T05:59:36;8.40;;;4.63;;
59336;SDS011;45115;52.002;4.686;2022-12-20T06:02:10;8.48;;;4.57;;
59336;SDS011;45115;52.002;4.686;2022-12-20T06:04:37;8.88;;;4.80;;
59336;SDS011;45115;52.002;4.686;2022-12-20T06:07:12;9.15;;;4.95;;
59336;SDS011;45115;52.002;4.686;2022-12-20T06:09:40;8.45;;;4.25;;
59336;SDS011;45115;52.002;4.686;2022-12-20T06:12:14;8.13;;;4.68;;
59336;SDS011;45115;52.002;4.686;2022-12-20T06:14:42;8.30;;;4.40;;
59336;SDS011;45115;52.002;4.686;2022-12-20T06:17:13;7.25;;;4.13;;
59336;SDS011;45115;52.002;4.686;2022-12-20T06:19:40;11.82;;;4.45;;
59336;SDS011;45115;52.002;4.686;2022-12-20T06:22:11;7.32;;;3.83;;
59336;SDS011;45115;52.002;4.686;2022-12-20T06:24:49;9.57;;;4.60;;
59336;SDS011;45115;52.002;4.686;2022-12-20T06:27:22;9.05;;;4.45;;
59336;SDS011;45115;52.002;4.686;2022-12-20T06:30:00;11.98;;;4.80;;
59336;SDS011;45115;52.002;4.686;2022-12-20T06:32:36;11.07;;;4.25;;
59336;SDS011;45115;52.002;4.686;2022-12-20T06:35:05;8.38;;;4.03;;
59336;SDS011;45115;52.002;4.686;2022-12-20T06:37:33;11.15;;;4.93;;
59336;SDS011;45115;52.002;4.686;2022-12-20T06:40:00;7.78;;;4.35;;
59336;SDS011;45115;52.002;4.686;2022-12-20T06:42:28;9.65;;;4.18;;
59336;SDS011;45115;52.002;4.686;2022-12-20T06:44:55;7.55;;;4.05;;
59336;SDS011;45115;52.002;4.686;2022-12-20T06:47:24;14.75;;;4.78;;
59336;SDS011;45115;52.002;4.686;2022-12-20T06:49:51;8.95;;;4.43;;
59336;SDS011;45115;52.002;4.686;2022-12-20T06:52:21;8.70;;;4.40;;
59336;SDS011;45115;52.002;4.686;2022-12-20T06:54:54;6.97;;;3.95;;
59336;SDS011;45115;52.002;4.686;2022-12-20T06:58:28;9.18;;;4.32;;
59336;SDS011;45115;52.002;4.686;2022-12-20T07:00:55;8.70;;;4.75;;
59336;SDS011;45115;52.002;4.686;2022-12-20T07:03:24;10.30;;;4.45;;
59336;SDS011;45115;52.002;4.686;2022-12-20T07:05:51;8.23;;;4.22;;
59336;SDS011;45115;52.002;4.686;2022-12-20T07:08:18;7.60;;;4.20;;
59336;SDS011;45115;52.002;4.686;2022-12-20T07:10:46;10.15;;;3.92;;
59336;SDS011;45115;52.002;4.686;2022-12-20T07:13:13;10.02;;;4.20;;
59336;SDS011;45115;52.002;4.686;2022-12-20T07:15:41;8.38;;;4.20;;
59336;SDS011;45115;52.002;4.686;2022-12-20T07:18:08;7.20;;;4.20;;
59336;SDS011;45115;52.002;4.686;2022-12-20T07:20:36;13.70;;;4.55;;
59336;SDS011;45115;52.002;4.686;2022-12-20T07:23:03;7.50;;;4.25;;
59336;SDS011;45115;52.002;4.686;2022-12-20T07:25:30;6.47;;;4.00;;
59336;SDS011;45115;52.002;4.686;2022-12-20T07:27:57;9.63;;;5.05;;
59336;SDS011;45115;52.002;4.686;2022-12-20T07:30:24;9.10;;;4.30;;
59336;SDS011;45115;52.002;4.686;2022-12-20T07:32:51;24.08;;;7.00;;
59336;SDS011;45115;52.002;4.686;2022-12-20T07:35:18;11.30;;;4.70;;
59336;SDS011;45115;52.002;4.686;2022-12-20T07:37:47;9.77;;;4.60;;
59336;SDS011;45115;52.002;4.686;2022-12-20T07:40:13;10.70;;;4.53;;
59336;SDS011;45115;52.002;4.686;2022-12-20T07:42:41;9.73;;;4.65;;
59336;SDS011;45115;52.002;4.686;2022-12-20T07:45:08;10.43;;;4.40;;
59336;SDS011;45115;52.002;4.686;2022-12-20T07:47:35;8.35;;;4.47;;
59336;SDS011;45115;52.002;4.686;2022-12-20T07:50:02;8.63;;;4.60;;
59336;SDS011;45115;52.002;4.686;2022-12-20T07:52:29;8.57;;;4.53;;
59336;SDS011;45115;52.002;4.686;2022-12-20T07:55:01;9.47;;;4.57;;
59336;SDS011;45115;52.002;4.686;2022-12-20T07:57:31;11.23;;;4.85;;
59336;SDS011;45115;52.002;4.686;2022-12-20T08:00:02;10.07;;;5.00;;
59336;SDS011;45115;52.002;4.686;2022-12-20T08:02:38;10.00;;;5.00;;
59336;SDS011;45115;52.002;4.686;2022-12-20T08:05:09;11.43;;;4.95;;
59336;SDS011;45115;52.002;4.686;2022-12-20T08:07:37;9.82;;;5.28;;
59336;SDS011;45115;52.002;4.686;2022-12-20T08:10:09;10.07;;;5.38;;
59336;SDS011;45115;52.002;4.686;2022-12-20T08:12:38;11.38;;;4.63;;
59336;SDS011;45115;52.002;4.686;2022-12-20T08:15:07;11.10;;;4.85;;
59336;SDS011;45115;52.002;4.686;2022-12-20T08:17:34;9.95;;;4.70;;
59336;SDS011;45115;52.002;4.686;2022-12-20T08:20:01;10.18;;;5.13;;
59336;SDS011;45115;52.002;4.686;2022-12-20T08:22:30;10.13;;;4.93;;
59336;SDS011;45115;52.002;4.686;2022-12-20T08:24:57;10.35;;;5.00;;
59336;SDS011;45115;52.002;4.686;2022-12-20T08:27:27;11.10;;;5.25;;
59336;SDS011;45115;52.002;4.686;2022-12-20T08:29:54;10.37;;;4.90;;
59336;SDS011;45115;52.002;4.686;2022-12-20T08:32:21;10.60;;;5.05;;
59336;SDS011;45115;52.002;4.686;2022-12-20T08:34:49;9.75;;;4.32;;
59336;SDS011;45115;52.002;4.686;2022-12-20T08:37:18;11.95;;;5.50;;
59336;SDS011;45115;52.002;4.686;2022-12-20T08:39:45;10.45;;;4.47;;
59336;SDS011;45115;52.002;4.686;2022-12-20T08:42:13;10.38;;;5.03;;
59336;SDS011;45115;52.002;4.686;2022-12-20T08:44:42;10.43;;;4.30;;
59336;SDS011;45115;52.002;4.686;2022-12-20T08:47:13;8.23;;;4.45;;
59336;SDS011;45115;52.002;4.686;2022-12-20T08:49:40;8.52;;;4.78;;
59336;SDS011;45115;52.002;4.686;2022-12-20T08:52:08;10.82;;;4.85;;
59336;SDS011;45115;52.002;4.686;2022-12-20T08:54:35;12.48;;;4.50;;
59336;SDS011;45115;52.002;4.686;2022-12-20T08:57:02;11.02;;;4.32;;
59336;SDS011;45115;52.002;4.686;2022-12-20T08:59:30;7.80;;;4.32;;
59336;SDS011;45115;52.002;4.686;2022-12-20T09:01:58;10.77;;;4.20;;
59336;SDS011;45115;52.002;4.686;2022-12-20T09:04:25;9.05;;;4.93;;
59336;SDS011;45115;52.002;4.686;2022-12-20T09:06:52;12.25;;;4.90;;
59336;SDS011;45115;52.002;4.686;2022-12-20T09:09:21;9.70;;;4.75;;
59336;SDS011;45115;52.002;4.686;2022-12-20T09:11:48;11.98;;;5.13;;
59336;SDS011;45115;52.002;4.686;2022-12-20T09:14:15;9.18;;;4.50;;
59336;SDS011;45115;52.002;4.686;2022-12-20T09:16:42;9.38;;;4.60;;
59336;SDS011;45115;52.002;4.686;2022-12-20T09:19:11;8.40;;;4.20;;
59336;SDS011;45115;52.002;4.686;2022-12-20T09:21:39;9.43;;;4.45;;
59336;SDS011;45115;52.002;4.686;2022-12-20T09:24:06;8.20;;;4.53;;
59336;SDS011;45115;52.002;4.686;2022-12-20T09:26:34;8.20;;;4.38;;
59336;SDS011;45115;52.002;4.686;2022-12-20T09:29:01;7.32;;;4.47;;
59336;SDS011;45115;52.002;4.686;2022-12-20T09:31:29;10.15;;;5.13;;
59336;SDS011;45115;52.002;4.686;2022-12-20T09:33:57;11.02;;;5.10;;
59336;SDS011;45115;52.002;4.686;2022-12-20T09:36:27;11.02;;;4.85;;
59336;SDS011;45115;52.002;4.686;2022-12-20T09:38:55;12.43;;;5.93;;
59336;SDS011;45115;52.002;4.686;2022-12-20T09:41:24;9.65;;;5.00;;
59336;SDS011;45115;52.002;4.686;2022-12-20T09:43:55;9.40;;;5.00;;
59336;SDS011;45115;52.002;4.686;2022-12-20T09:46:24;11.40;;;4.57;;
59336;SDS011;45115;52.002;4.686;2022-12-20T09:48:52;10.93;;;4.55;;
59336;SDS011;45115;52.002;4.686;2022-12-20T09:51:31;9.55;;;4.70;;
59336;SDS011;45115;52.002;4.686;2022-12-20T09:54:12;11.05;;;5.20;;
59336;SDS011;45115;52.002;4.686;2022-12-20T09:56:46;11.57;;;5.68;;
59336;SDS011;45115;52.002;4.686;2022-12-20T09:59:22;11.02;;;4.78;;
59336;SDS011;45115;52.002;4.686;2022-12-20T10:01:49;11.57;;;4.75;;
59336;SDS011;45115;52.002;4.686;2022-12-20T10:04:19;10.30;;;4.82;;
59336;SDS011;45115;52.002;4.686;2022-12-20T10:09:26;8.00;;;4.70;;
59336;SDS011;45115;52.002;4.686;2022-12-20T10:12:08;9.55;;;5.00;;
59336;SDS011;45115;52.002;4.686;2022-12-20T10:14:50;10.70;;;4.65;;
59336;SDS011;45115;52.002;4.686;2022-12-20T10:17:33;10.35;;;5.00;;
59336;SDS011;45115;52.002;4.686;2022-12-20T10:20:14;10.20;;;5.00;;
59336;SDS011;45115;52.002;4.686;2022-12-20T10:22:52;11.40;;;5.15;;
59336;SDS011;45115;52.002;4.686;2022-12-20T10:25:23;11.55;;;5.85;;
59336;SDS011;45115;52.002;4.686;2022-12-20T10:27:55;11.57;;;4.93;;
59336;SDS011;45115;52.002;4.686;2022-12-20T10:30:23;12.90;;;5.10;;
59336;SDS011;45115;52.002;4.686;2022-12-20T10:32:54;12.15;;;5.30;;
59336;SDS011;45115;52.002;4.686;2022-12-20T10:35:23;12.85;;;5.55;;
59336;SDS011;45115;52.002;4.686;2022-12-20T10:37:58;9.38;;;5.05;;
59336;SDS011;45115;52.002;4.686;2022-12-20T10:40:28;14.43;;;5.13;;
59336;SDS011;45115;52.002;4.686;2022-12-20T10:42:57;11.75;;;5.00;;
59336;SDS011;45115;52.002;4.686;2022-12-20T10:45:32;10.25;;;4.85;;
59336;SDS011;45115;52.002;4.686;2022-12-20T10:48:02;10.93;;;5.55;;
59336;SDS011;45115;52.002;4.686;2022-12-20T10:50:31;11.52;;;5.40;;
59336;SDS011;45115;52.002;4.686;2022-12-20T10:53:11;8.70;;;5.15;;
59336;SDS011;45115;52.002;4.686;2022-12-20T10:55:47;13.48;;;5.70;;
59336;SDS011;45115;52.002;4.686;2022-12-20T10:58:15;11.05;;;5.80;;
59336;SDS011;45115;52.002;4.686;2022-12-20T11:00:43;9.48;;;4.90;;
59336;SDS011;45115;52.002;4.686;2022-12-20T11:03:14;10.02;;;5.53;;
59336;SDS011;45115;52.002;4.686;2022-12-20T11:05:51;13.02;;;5.90;;
59336;SDS011;45115;52.002;4.686;2022-12-20T11:08:24;13.13;;;5.85;;
59336;SDS011;45115;52.002;4.686;2022-12-20T11:11:10;11.90;;;5.75;;
59336;SDS011;45115;52.002;4.686;2022-12-20T11:13:39;10.05;;;5.75;;
59336;SDS011;45115;52.002;4.686;2022-12-20T11:16:19;11.57;;;5.85;;
59336;SDS011;45115;52.002;4.686;2022-12-20T11:18:49;12.10;;;6.13;;
59336;SDS011;45115;52.002;4.686;2022-12-20T11:21:23;13.00;;;5.97;;
59336;SDS011;45115;52.002;4.686;2022-12-20T11:23:59;12.82;;;5.88;;
59336;SDS011;45115;52.002;4.686;2022-12-20T11:26:34;12.77;;;6.15;;
59336;SDS011;45115;52.002;4.686;2022-12-20T11:29:22;12.05;;;6.35;;
59336;SDS011;45115;52.002;4.686;2022-12-20T11:32:02;12.50;;;6.10;;
59336;SDS011;45115;52.002;4.686;2022-12-20T11:34:38;13.13;;;6.20;;
59336;SDS011;45115;52.002;4.686;2022-12-20T11:37:16;10.90;;;6.45;;
59336;SDS011;45115;52.002;4.686;2022-12-20T11:39:53;13.68;;;6.43;;
59336;SDS011;45115;52.002;4.686;2022-12-20T11:42:33;12.20;;;6.65;;
59336;SDS011;45115;52.002;4.686;2022-12-20T11:45:11;12.10;;;6.25;;
59336;SDS011;45115;52.002;4.686;2022-12-20T11:48:03;12.48;;;6.00;;
59336;SDS011;45115;52.002;4.686;2022-12-20T11:50:44;11.77;;;6.45;;
59336;SDS011;45115;52.002;4.686;2022-12-20T11:53:22;13.80;;;6.72;;
59336;SDS011;45115;52.002;4.686;2022-12-20T11:55:58;11.38;;;6.20;;
59336;SDS011;45115;52.002;4.686;2022-12-20T11:58:28;15.35;;;7.00;;
59336;SDS011;45115;52.002;4.686;2022-12-20T12:01:02;10.25;;;5.75;;
59336;SDS011;45115;52.002;4.686;2022-12-20T12:03:33;12.63;;;6.78;;
59336;SDS011;45115;52.002;4.686;2022-12-20T12:06:02;13.55;;;6.47;;
59336;SDS011;45115;52.002;4.686;2022-12-20T12:08:37;10.98;;;5.90;;
59336;SDS011;45115;52.002;4.686;2022-12-20T12:11:13;12.60;;;6.13;;
59336;SDS011;45115;52.002;4.686;2022-12-20T12:13:43;12.65;;;5.65;;
59336;SDS011;45115;52.002;4.686;2022-12-20T12:16:11;14.05;;;6.10;;
59336;SDS011;45115;52.002;4.686;2022-12-20T12:18:41;11.98;;;5.75;;
59336;SDS011;45115;52.002;4.686;2022-12-20T12:21:10;11.73;;;6.00;;
59336;SDS011;45115;52.002;4.686;2022-12-20T12:23:47;9.90;;;5.97;;
59336;SDS011;45115;52.002;4.686;2022-12-20T12:26:25;12.18;;;6.38;;
59336;SDS011;45115;52.002;4.686;2022-12-20T12:31:22;11.43;;;6.60;;
59336;SDS011;45115;52.002;4.686;2022-12-20T12:33:59;12.27;;;6.53;;
59336;SDS011;45115;52.002;4.686;2022-12-20T12:36:41;11.93;;;6.32;;
59336;SDS011;45115;52.002;4.686;2022-12-20T12:39:28;17.50;;;6.45;;
59336;SDS011;45115;52.002;4.686;2022-12-20T12:42:30;10.13;;;6.03;;
59336;SDS011;45115;52.002;4.686;2022-12-20T12:45:19;14.40;;;6.63;;
59336;SDS011;45115;52.002;4.686;2022-12-20T12:47:51;11.05;;;6.47;;
59336;SDS011;45115;52.002;4.686;2022-12-20T12:50:22;14.60;;;6.97;;
59336;SDS011;45115;52.002;4.686;2022-12-20T12:52:53;12.07;;;6.78;;
59336;SDS011;45115;52.002;4.686;2022-12-20T12:55:39;12.55;;;7.03;;
59336;SDS011;45115;52.002;4.686;2022-12-20T12:58:27;12.52;;;6.88;;
59336;SDS011;45115;52.002;4.686;2022-12-20T13:00:59;12.20;;;7.10;;
59336;SDS011;45115;52.002;4.686;2022-12-20T13:03:37;13.40;;;6.72;;
59336;SDS011;45115;52.002;4.686;2022-12-20T13:09:16;12.80;;;6.55;;
59336;SDS011;45115;52.002;4.686;2022-12-20T13:11:47;11.82;;;6.38;;
59336;SDS011;45115;52.002;4.686;2022-12-20T13:20:17;14.68;;;6.32;;
59336;SDS011;45115;52.002;4.686;2022-12-20T13:25:42;13.95;;;7.05;;
59336;SDS011;45115;52.002;4.686;2022-12-20T13:31:31;12.95;;;6.32;;
59336;SDS011;45115;52.002;4.686;2022-12-20T13:34:01;13.27;;;6.43;;
59336;SDS011;45115;52.002;4.686;2022-12-20T13:36:32;12.93;;;6.60;;
59336;SDS011;45115;52.002;4.686;2022-12-20T13:39:06;12.55;;;6.38;;
59336;SDS011;45115;52.002;4.686;2022-12-20T13:42:15;12.00;;;6.90;;
59336;SDS011;45115;52.002;4.686;2022-12-20T13:44:52;12.30;;;6.95;;
59336;SDS011;45115;52.002;4.686;2022-12-20T13:50:26;11.82;;;6.75;;
59336;SDS011;45115;52.002;4.686;2022-12-20T13:52:57;13.43;;;7.75;;
59336;SDS011;45115;52.002;4.686;2022-12-20T13:55:26;14.18;;;7.13;;
59336;SDS011;45115;52.002;4.686;2022-12-20T13:58:02;14.48;;;7.70;;
59336;SDS011;45115;52.002;4.686;2022-12-20T14:00:31;14.77;;;8.27;;
59336;SDS011;45115;52.002;4.686;2022-12-20T14:03:01;14.20;;;8.30;;
59336;SDS011;45115;52.002;4.686;2022-12-20T14:05:32;14.70;;;8.07;;
59336;SDS011;45115;52.002;4.686;2022-12-20T14:08:02;16.45;;;8.88;;
59336;SDS011;45115;52.002;4.686;2022-12-20T14:10:33;12.60;;;7.45;;
59336;SDS011;45115;52.002;4.686;2022-12-20T14:13:01;13.13;;;7.18;;
59336;SDS011;45115;52.002;4.686;2022-12-20T14:15:30;13.45;;;6.95;;
59336;SDS011;45115;52.002;4.686;2022-12-20T14:18:05;13.88;;;7.55;;
59336;SDS011;45115;52.002;4.686;2022-12-20T14:20:41;12.43;;;6.63;;
59336;SDS011;45115;52.002;4.686;2022-12-20T14:23:09;13.00;;;7.68;;
59336;SDS011;45115;52.002;4.686;2022-12-20T14:25:41;14.73;;;7.63;;
59336;SDS011;45115;52.002;4.686;2022-12-20T14:28:15;13.30;;;7.60;;
59336;SDS011;45115;52.002;4.686;2022-12-20T14:30:47;13.45;;;7.72;;
59336;SDS011;45115;52.002;4.686;2022-12-20T14:33:23;13.60;;;7.25;;
59336;SDS011;45115;52.002;4.686;2022-12-20T14:35:55;14.25;;;7.70;;
59336;SDS011;45115;52.002;4.686;2022-12-20T14:38:27;15.75;;;7.40;;
59336;SDS011;45115;52.002;4.686;2022-12-20T14:40:55;14.35;;;7.78;;
59336;SDS011;45115;52.002;4.686;2022-12-20T14:43:24;15.02;;;8.57;;
59336;SDS011;45115;52.002;4.686;2022-12-20T14:48:45;15.55;;;8.52;;
59336;SDS011;45115;52.002;4.686;2022-12-20T14:51:12;14.85;;;8.13;;
59336;SDS011;45115;52.002;4.686;2022-12-20T14:53:45;16.77;;;8.57;;
59336;SDS011;45115;52.002;4.686;2022-12-20T14:56:16;14.70;;;9.02;;
59336;SDS011;45115;52.002;4.686;2022-12-20T14:58:44;16.30;;;9.50;;
59336;SDS011;45115;52.002;4.686;2022-12-20T15:01:16;14.80;;;8.85;;
59336;SDS011;45115;52.002;4.686;2022-12-20T15:03:50;17.23;;;9.43;;
59336;SDS011;45115;52.002;4.686;2022-12-20T15:06:32;16.17;;;8.57;;
59336;SDS011;45115;52.002;4.686;2022-12-20T15:09:00;17.55;;;9.10;;
59336;SDS011;45115;52.002;4.686;2022-12-20T15:11:29;17.83;;;9.85;;
59336;SDS011;45115;52.002;4.686;2022-12-20T15:13:58;17.98;;;9.48;;
59336;SDS011;45115;52.002;4.686;2022-12-20T15:16:27;15.98;;;9.30;;
59336;SDS011;45115;52.002;4.686;2022-12-20T15:18:57;18.73;;;9.30;;
59336;SDS011;45115;52.002;4.686;2022-12-20T15:21:27;17.73;;;9.82;;
59336;SDS011;45115;52.002;4.686;2022-12-20T15:23:56;17.55;;;9.50;;
59336;SDS011;45115;52.002;4.686;2022-12-20T15:26:27;17.42;;;8.95;;
59336;SDS011;45115;52.002;4.686;2022-12-20T15:28:55;16.85;;;9.30;;
59336;SDS011;45115;52.002;4.686;2022-12-20T15:31:22;16.35;;;9.50;;
59336;SDS011;45115;52.002;4.686;2022-12-20T15:33:51;17.02;;;9.00;;
59336;SDS011;45115;52.002;4.686;2022-12-20T15:36:23;17.15;;;9.15;;